Time;durP1;ratioP1;P1;durP2;ratioP2;P2;SDS_P1;SDS_P2;PMS_P1;PMS_P2;Temp;Humidity;BMP_temperature;BMP_pressure;BME280_temperature;BME280_humidity;BME280_pressure;Samples;Min_cycle;Max_cycle;Signal;HPM_P1;HPM_P2
2021/04/08 00:00:55;;;;;;;8.50;6.33;;;3.30;99.90;;;;;;5082720;28;20224;-79
2021/04/08 00:03:21;;;;;;;7.33;5.80;;;3.40;99.90;;;;;;5078329;28;20199;-81
2021/04/08 00:05:48;;;;;;;8.23;5.97;;;3.40;99.90;;;;;;5085539;28;20531;-81
2021/04/08 00:08:15;;;;;;;10.33;5.47;;;3.50;99.90;;;;;;5086789;28;20204;-81
2021/04/08 00:10:41;;;;;;;9.03;6.00;;;3.30;99.90;;;;;;5086946;28;20199;-80
2021/04/08 00:13:08;;;;;;;10.97;5.50;;;3.30;99.90;;;;;;5073123;28;20205;-80
2021/04/08 00:15:34;;;;;;;10.43;6.10;;;3.30;99.90;;;;;;5072773;28;20556;-81
2021/04/08 00:18:01;;;;;;;10.63;6.10;;;3.30;99.90;;;;;;5087226;28;20289;-81
2021/04/08 00:20:27;;;;;;;9.87;5.77;;;3.40;99.90;;;;;;5072864;28;20206;-81
2021/04/08 00:22:53;;;;;;;10.23;6.30;;;3.30;99.90;;;;;;5091360;28;20285;-81
2021/04/08 00:25:21;;;;;;;7.97;5.40;;;3.30;99.90;;;;;;5092645;28;20212;-81
2021/04/08 00:27:47;;;;;;;14.07;5.77;;;3.30;99.90;;;;;;5092527;28;20202;-81
2021/04/08 00:30:15;;;;;;;8.43;5.03;;;3.30;99.90;;;;;;5096069;28;20607;-81
2021/04/08 00:32:41;;;;;;;11.77;5.93;;;3.20;99.90;;;;;;5085205;28;20336;-81
2021/04/08 00:35:08;;;;;;;6.10;4.60;;;3.20;99.90;;;;;;5086034;28;20319;-81
2021/04/08 00:37:35;;;;;;;8.27;5.00;;;3.20;99.90;;;;;;5095173;28;20194;-81
2021/04/08 00:40:02;;;;;;;8.10;4.70;;;3.40;99.90;;;;;;5096281;28;20194;-80
2021/04/08 00:42:29;;;;;;;9.03;5.23;;;3.20;99.90;;;;;;5096953;28;20198;-81
2021/04/08 00:44:55;;;;;;;7.10;4.87;;;3.30;99.90;;;;;;5090138;28;20551;-80
2021/04/08 00:47:21;;;;;;;9.53;4.60;;;3.30;99.90;;;;;;5096367;28;20563;-80
2021/04/08 00:49:48;;;;;;;8.17;4.87;;;3.10;99.90;;;;;;5096708;28;20220;-81
2021/04/08 00:52:14;;;;;;;7.17;4.90;;;3.20;99.90;;;;;;5095804;28;20254;-81
2021/04/08 00:54:41;;;;;;;7.83;5.63;;;3.20;99.90;;;;;;5088806;28;20230;-80
2021/04/08 00:57:08;;;;;;;10.30;5.40;;;3.30;99.90;;;;;;5089746;28;20199;-80
2021/04/08 00:59:35;;;;;;;7.80;5.43;;;3.20;99.90;;;;;;5096140;28;20198;-79
2021/04/08 01:02:02;;;;;;;12.03;5.30;;;3.30;99.90;;;;;;5076112;28;20226;-80
2021/04/08 01:04:28;;;;;;;8.50;4.97;;;3.20;99.90;;;;;;5087448;28;20202;-79
2021/04/08 01:06:55;;;;;;;9.20;4.83;;;3.20;99.90;;;;;;5093093;28;20221;-80
2021/04/08 01:09:21;;;;;;;7.87;4.50;;;3.30;99.90;;;;;;5092453;28;20198;-80
2021/04/08 01:11:48;;;;;;;5.60;4.03;;;3.20;99.90;;;;;;5094542;28;20778;-80
2021/04/08 01:14:14;;;;;;;7.43;4.67;;;3.10;99.90;;;;;;5083421;28;20692;-81
2021/04/08 01:16:51;;;;;;;8.03;4.57;;;3.30;99.90;;;;;;5086448;28;20210;-80
2021/04/08 01:19:43;;;;;;;5.70;4.17;;;3.20;99.90;;;;;;5092647;28;20205;-80
2021/04/08 01:22:24;;;;;;;6.00;4.40;;;3.30;99.90;;;;;;5083251;28;20205;-80
2021/04/08 01:25:09;;;;;;;9.17;4.90;;;3.20;99.90;;;;;;5082052;28;20194;-79
2021/04/08 01:27:47;;;;;;;8.97;5.33;;;3.20;99.90;;;;;;5080165;28;20680;-80
2021/04/08 01:30:39;;;;;;;8.30;5.53;;;3.20;99.90;;;;;;5075364;28;20202;-80
2021/04/08 01:33:10;;;;;;;8.57;5.40;;;3.20;99.90;;;;;;5089713;28;20202;-80
2021/04/08 01:35:40;;;;;;;7.73;4.40;;;3.20;99.90;;;;;;5086596;28;20210;-81
2021/04/08 01:38:10;;;;;;;9.10;4.43;;;3.10;99.90;;;;;;5091840;28;20198;-80
2021/04/08 01:40:37;;;;;;;6.17;4.53;;;3.20;99.90;;;;;;5085244;28;20281;-81
2021/04/08 01:43:05;;;;;;;9.67;4.20;;;3.20;99.90;;;;;;5081123;28;20203;-81
2021/04/08 01:45:32;;;;;;;8.87;4.80;;;3.20;99.90;;;;;;5086708;28;20283;-81
2021/04/08 01:48:02;;;;;;;11.30;4.60;;;3.20;99.90;;;;;;5076390;28;20438;-81
2021/04/08 01:50:30;;;;;;;11.13;4.67;;;3.20;99.90;;;;;;5095585;28;20190;-81
2021/04/08 01:52:59;;;;;;;4.90;4.27;;;3.20;99.90;;;;;;5095823;28;20283;-81
2021/04/08 01:55:27;;;;;;;7.97;4.57;;;3.20;99.90;;;;;;5074837;28;20230;-81
2021/04/08 01:57:55;;;;;;;10.53;5.20;;;3.20;99.90;;;;;;5087400;28;20714;-81
2021/04/08 02:00:23;;;;;;;7.97;4.00;;;3.20;99.90;;;;;;5075776;28;20559;-80
2021/04/08 02:02:53;;;;;;;7.57;3.90;;;3.20;99.90;;;;;;5086262;28;20204;-81
2021/04/08 02:05:21;;;;;;;7.30;4.27;;;3.30;99.90;;;;;;5077183;28;20237;-81
2021/04/08 02:07:51;;;;;;;8.80;5.13;;;3.20;99.90;;;;;;5074942;28;20207;-81
2021/04/08 02:10:18;;;;;;;5.60;4.20;;;3.20;99.90;;;;;;5077614;28;20199;-82
2021/04/08 02:12:47;;;;;;;5.33;4.30;;;3.30;99.90;;;;;;5085664;28;20198;-80
2021/04/08 02:15:16;;;;;;;6.57;4.87;;;3.20;99.90;;;;;;5075409;28;20222;-79
2021/04/08 02:17:45;;;;;;;8.13;4.27;;;3.20;99.90;;;;;;5094494;28;20195;-79
2021/04/08 02:20:14;;;;;;;7.63;4.70;;;3.20;99.90;;;;;;5084150;28;20591;-79
2021/04/08 02:22:43;;;;;;;6.90;4.80;;;3.20;99.90;;;;;;5088533;28;20198;-79
2021/04/08 02:25:13;;;;;;;6.53;4.73;;;3.30;99.90;;;;;;5083948;28;20218;-79
2021/04/08 02:27:40;;;;;;;8.13;4.73;;;3.30;99.90;;;;;;5094547;28;20198;-79
2021/04/08 02:30:08;;;;;;;9.30;4.60;;;3.30;99.90;;;;;;5094700;28;20208;-79
2021/04/08 02:32:36;;;;;;;9.07;4.23;;;3.30;99.90;;;;;;5079744;28;20203;-80
2021/04/08 02:35:05;;;;;;;7.37;4.23;;;3.30;99.90;;;;;;5074279;28;20226;-80
2021/04/08 02:37:32;;;;;;;5.70;4.27;;;3.30;99.90;;;;;;5087819;28;20252;-79
2021/04/08 02:39:59;;;;;;;9.00;4.50;;;3.20;99.90;;;;;;5091162;28;20205;-79
2021/04/08 02:42:26;;;;;;;10.70;4.57;;;3.30;99.90;;;;;;5081040;28;20194;-79
2021/04/08 02:44:53;;;;;;;9.20;4.40;;;3.20;99.90;;;;;;5084680;28;20289;-79
2021/04/08 02:47:20;;;;;;;7.20;4.10;;;3.20;99.90;;;;;;5074876;28;20206;-78
2021/04/08 02:49:46;;;;;;;7.27;4.60;;;3.20;99.90;;;;;;5079834;28;20206;-78
2021/04/08 02:52:17;;;;;;;8.30;4.73;;;3.20;99.90;;;;;;5073329;28;20293;-78
2021/04/08 02:54:48;;;;;;;8.80;4.70;;;3.20;99.90;;;;;;5073829;28;20218;-78
2021/04/08 02:57:24;;;;;;;6.13;4.23;;;3.10;99.90;;;;;;5088855;28;20362;-79
2021/04/08 02:59:54;;;;;;;6.90;3.87;;;3.20;99.90;;;;;;5073973;28;20361;-79
2021/04/08 03:02:24;;;;;;;10.13;4.10;;;3.20;99.90;;;;;;5093603;28;20289;-79
2021/04/08 03:04:57;;;;;;;7.60;4.40;;;3.10;99.90;;;;;;5081293;28;20630;-79
2021/04/08 03:07:29;;;;;;;4.67;4.13;;;3.10;99.90;;;;;;5073479;28;20195;-79
2021/04/08 03:09:57;;;;;;;8.80;4.10;;;3.10;99.90;;;;;;5073575;28;20198;-80
2021/04/08 03:12:27;;;;;;;7.23;4.20;;;3.20;99.90;;;;;;5087463;28;20201;-79
2021/04/08 03:14:56;;;;;;;10.27;5.10;;;3.10;99.90;;;;;;5073888;28;20210;-79
2021/04/08 03:17:25;;;;;;;7.13;4.90;;;3.20;99.90;;;;;;5087496;28;20246;-78
2021/04/08 03:19:53;;;;;;;10.30;4.80;;;3.10;99.90;;;;;;5082865;28;20285;-79
2021/04/08 03:22:22;;;;;;;6.23;4.73;;;3.30;99.90;;;;;;5077363;28;20289;-79
2021/04/08 03:24:50;;;;;;;7.37;4.97;;;3.20;99.90;;;;;;5073034;28;20654;-80
2021/04/08 03:27:18;;;;;;;9.40;5.00;;;3.20;99.90;;;;;;5072559;28;20343;-80
2021/04/08 03:29:45;;;;;;;7.27;5.10;;;3.10;99.90;;;;;;5073282;28;20203;-79
2021/04/08 03:32:12;;;;;;;9.77;5.23;;;3.20;99.90;;;;;;5073058;28;20201;-79
2021/04/08 03:34:40;;;;;;;5.67;4.67;;;3.30;99.90;;;;;;5090098;28;20221;-80
2021/04/08 03:37:07;;;;;;;10.77;5.30;;;3.30;99.90;;;;;;5081832;28;20212;-79
2021/04/08 03:39:34;;;;;;;10.30;5.10;;;3.30;99.90;;;;;;5075165;28;20893;-79
2021/04/08 03:42:01;;;;;;;9.43;4.70;;;3.30;99.90;;;;;;5083252;28;20203;-78
2021/04/08 03:44:30;;;;;;;7.50;4.67;;;3.20;99.90;;;;;;5088879;28;20263;-79
2021/04/08 03:46:59;;;;;;;7.83;5.43;;;3.20;99.90;;;;;;5093489;28;20250;-79
2021/04/08 03:49:27;;;;;;;8.87;5.33;;;3.30;99.90;;;;;;5077795;28;20203;-78
2021/04/08 03:51:54;;;;;;;10.63;6.40;;;3.30;99.90;;;;;;5072727;28;20221;-79
2021/04/08 03:54:23;;;;;;;7.90;5.30;;;3.20;99.90;;;;;;5085275;28;20225;-80
2021/04/08 03:56:51;;;;;;;7.73;5.20;;;3.20;99.90;;;;;;5074354;28;20198;-79
2021/04/08 03:59:18;;;;;;;10.03;5.53;;;3.10;99.90;;;;;;5083717;28;20558;-80
2021/04/08 04:01:46;;;;;;;7.67;5.60;;;3.10;99.90;;;;;;5089526;28;20251;-78
2021/04/08 04:04:15;;;;;;;9.53;5.47;;;3.10;99.90;;;;;;5072751;28;20206;-79
2021/04/08 04:06:44;;;;;;;10.47;6.17;;;3.00;99.90;;;;;;5072891;28;20242;-80
2021/04/08 04:09:13;;;;;;;9.73;6.23;;;3.00;99.90;;;;;;5080948;28;20206;-79
2021/04/08 04:11:42;;;;;;;8.43;6.20;;;3.00;99.90;;;;;;5077688;28;20203;-80
2021/04/08 04:14:10;;;;;;;10.80;5.70;;;2.90;99.90;;;;;;5072746;28;20222;-80
2021/04/08 04:16:38;;;;;;;9.70;5.77;;;2.90;99.90;;;;;;5086157;28;20638;-79
2021/04/08 04:19:04;;;;;;;11.27;5.97;;;2.90;99.90;;;;;;5087010;28;20199;-80
2021/04/08 04:21:33;;;;;;;14.53;5.87;;;2.90;99.90;;;;;;5072621;28;20199;-80
2021/04/08 04:23:59;;;;;;;11.23;6.40;;;2.80;99.90;;;;;;5091274;28;20404;-80
2021/04/08 04:26:26;;;;;;;9.67;5.80;;;3.10;99.90;;;;;;5082640;28;20198;-80
2021/04/08 04:28:53;;;;;;;12.00;5.87;;;2.80;99.90;;;;;;5072715;28;20202;-79
2021/04/08 04:31:19;;;;;;;11.70;6.27;;;2.70;99.90;;;;;;5081425;28;20290;-80
2021/04/08 04:33:46;;;;;;;11.93;6.50;;;2.80;99.90;;;;;;5092913;28;20231;-80
2021/04/08 04:36:12;;;;;;;10.93;6.63;;;2.70;99.90;;;;;;5086034;28;20337;-80
2021/04/08 04:38:39;;;;;;;10.77;5.87;;;2.70;99.90;;;;;;5072475;28;20205;-81
2021/04/08 04:41:05;;;;;;;9.87;6.00;;;2.60;99.90;;;;;;5086844;28;20632;-80
2021/04/08 04:43:32;;;;;;;10.03;6.37;;;2.60;99.90;;;;;;5072223;28;20608;-81
2021/04/08 04:45:58;;;;;;;11.13;6.67;;;2.60;99.90;;;;;;5072330;28;20647;-81
2021/04/08 04:48:24;;;;;;;9.97;6.80;;;2.60;99.90;;;;;;5076074;28;20195;-81
2021/04/08 04:50:52;;;;;;;9.67;6.40;;;2.70;99.90;;;;;;5083796;28;20207;-81
2021/04/08 04:53:18;;;;;;;9.30;6.93;;;2.60;99.90;;;;;;5075122;28;20199;-81
2021/04/08 04:55:45;;;;;;;10.07;6.93;;;2.60;99.90;;;;;;5081866;28;20221;-80
2021/04/08 04:58:12;;;;;;;13.23;6.90;;;2.60;99.90;;;;;;5078088;28;20337;-81
2021/04/08 05:00:38;;;;;;;11.00;7.80;;;2.60;99.90;;;;;;5092203;28;20195;-80
2021/04/08 05:03:05;;;;;;;14.87;7.50;;;2.60;99.90;;;;;;5078154;28;20205;-81
2021/04/08 05:05:32;;;;;;;13.17;7.77;;;2.60;99.90;;;;;;5071917;28;20199;-80
2021/04/08 05:07:58;;;;;;;9.93;7.47;;;2.80;99.90;;;;;;5072336;28;20209;-80
2021/04/08 05:10:25;;;;;;;11.73;7.60;;;2.60;99.90;;;;;;5090990;28;20202;-80
2021/04/08 05:12:52;;;;;;;10.63;7.67;;;2.70;99.90;;;;;;5092028;28;20202;-81
2021/04/08 05:15:19;;;;;;;13.00;7.90;;;2.80;99.90;;;;;;5077880;28;20268;-80
2021/04/08 05:17:45;;;;;;;9.70;6.73;;;2.70;99.90;;;;;;5086825;28;20203;-79
2021/04/08 05:20:13;;;;;;;13.33;7.60;;;2.80;99.90;;;;;;5089739;28;20675;-80
2021/04/08 05:22:39;;;;;;;14.33;7.10;;;2.80;99.90;;;;;;5082722;28;20198;-80
2021/04/08 05:25:07;;;;;;;11.10;7.13;;;2.80;99.90;;;;;;5082781;28;20290;-81
2021/04/08 05:27:33;;;;;;;12.53;6.93;;;2.90;99.90;;;;;;5075507;28;20210;-80
2021/04/08 05:30:01;;;;;;;11.20;6.80;;;2.90;99.90;;;;;;5087402;28;20206;-79
2021/04/08 05:32:27;;;;;;;12.87;7.60;;;3.00;99.90;;;;;;5077397;28;20206;-80
2021/04/08 05:34:54;;;;;;;12.43;7.27;;;3.00;99.90;;;;;;5075562;28;20223;-79
2021/04/08 05:37:20;;;;;;;9.73;6.77;;;3.00;99.90;;;;;;5077025;28;20688;-80
2021/04/08 05:39:47;;;;;;;8.37;6.67;;;3.10;99.90;;;;;;5087377;28;20233;-80
2021/04/08 05:42:13;;;;;;;12.03;7.03;;;3.00;99.90;;;;;;5075114;28;20688;-80
2021/04/08 05:44:39;;;;;;;11.50;6.90;;;3.10;99.90;;;;;;5075233;28;20344;-80
2021/04/08 05:47:07;;;;;;;9.73;6.87;;;3.10;99.90;;;;;;5087504;28;20242;-80
2021/04/08 05:49:33;;;;;;;9.43;6.80;;;3.10;99.90;;;;;;5090928;28;20580;-79
2021/04/08 05:51:59;;;;;;;11.00;8.17;;;3.00;99.90;;;;;;5095204;28;20244;-80
2021/04/08 05:54:26;;;;;;;11.93;7.73;;;3.10;99.90;;;;;;5082534;28;20222;-79
2021/04/08 05:56:52;;;;;;;12.87;6.97;;;3.10;99.90;;;;;;5094381;28;20201;-80
2021/04/08 05:59:18;;;;;;;10.50;7.77;;;3.10;99.90;;;;;;5084277;28;20293;-80
2021/04/08 06:01:45;;;;;;;8.47;7.03;;;3.10;99.90;;;;;;5088802;28;20195;-80
2021/04/08 06:04:12;;;;;;;13.60;7.50;;;3.20;99.90;;;;;;5074790;28;20670;-80
2021/04/08 06:06:38;;;;;;;11.13;7.97;;;3.20;99.90;;;;;;5089105;28;20212;-82
2021/04/08 06:09:05;;;;;;;12.97;7.87;;;3.40;99.90;;;;;;5074852;28;20286;-80
2021/04/08 06:11:32;;;;;;;11.43;7.90;;;3.50;99.90;;;;;;5074534;28;20573;-81
2021/04/08 06:13:58;;;;;;;13.27;8.00;;;3.50;99.90;;;;;;5074206;28;20206;-81
2021/04/08 06:16:24;;;;;;;12.40;7.77;;;3.60;99.90;;;;;;5074381;28;20539;-81
2021/04/08 06:18:51;;;;;;;14.23;7.90;;;3.60;99.90;;;;;;5074718;28;20209;-81
2021/04/08 06:21:18;;;;;;;12.00;7.77;;;3.70;99.90;;;;;;5075086;28;20202;-80
2021/04/08 06:23:44;;;;;;;10.47;7.03;;;3.90;99.90;;;;;;5088788;28;20289;-80
2021/04/08 06:26:11;;;;;;;15.17;7.73;;;3.90;99.90;;;;;;5083115;28;20217;-81
2021/04/08 06:28:37;;;;;;;12.17;8.13;;;4.00;99.90;;;;;;5093854;28;20568;-80
2021/04/08 06:31:03;;;;;;;10.23;7.87;;;4.20;99.90;;;;;;5081263;28;20284;-80
2021/04/08 06:33:30;;;;;;;13.00;8.27;;;4.20;99.90;;;;;;5094425;28;20206;-81
2021/04/08 06:35:56;;;;;;;12.33;8.23;;;4.30;99.90;;;;;;5075306;28;20720;-82
2021/04/08 06:38:23;;;;;;;16.80;8.67;;;4.40;99.90;;;;;;5074322;28;20235;-81
2021/04/08 06:40:50;;;;;;;13.03;7.87;;;4.50;99.90;;;;;;5074444;28;20211;-82
2021/04/08 06:43:17;;;;;;;12.63;8.03;;;4.70;99.90;;;;;;5074078;28;20199;-82
2021/04/08 06:45:49;;;;;;;12.13;7.33;;;4.70;99.90;;;;;;5075504;28;20268;-81
2021/04/08 06:48:19;;;;;;;16.43;9.00;;;4.70;99.90;;;;;;5086266;28;20187;-81
2021/04/08 06:50:48;;;;;;;17.43;7.90;;;4.70;99.90;;;;;;5074557;28;20279;-81
2021/04/08 06:53:14;;;;;;;11.77;8.63;;;4.80;99.90;;;;;;5091416;28;20210;-81
2021/04/08 06:55:43;;;;;;;13.87;8.20;;;4.80;99.90;;;;;;5084436;28;20599;-79
2021/04/08 06:58:10;;;;;;;11.40;7.43;;;4.90;99.90;;;;;;5073248;28;20297;-80
2021/04/08 07:00:36;;;;;;;11.57;8.17;;;4.90;99.90;;;;;;5073347;28;20201;-79
2021/04/08 07:03:04;;;;;;;12.17;8.43;;;4.90;99.90;;;;;;5073753;28;20203;-79
2021/04/08 07:05:30;;;;;;;10.07;8.37;;;5.00;99.90;;;;;;5073705;28;20199;-79
2021/04/08 07:07:57;;;;;;;12.70;8.60;;;5.10;99.90;;;;;;5073280;28;20680;-79
2021/04/08 07:10:23;;;;;;;11.90;8.60;;;5.20;99.90;;;;;;5072309;28;20197;-81
2021/04/08 07:12:53;;;;;;;9.70;7.60;;;5.30;99.90;;;;;;5083570;28;20717;-79
2021/04/08 07:15:20;;;;;;;11.20;8.00;;;5.20;99.90;;;;;;5079680;28;21456;-81
2021/04/08 07:17:47;;;;;;;14.20;8.43;;;5.50;99.90;;;;;;5077388;28;20211;-82
2021/04/08 07:20:14;;;;;;;11.97;8.07;;;5.40;99.90;;;;;;5077052;28;20214;-81
2021/04/08 07:22:41;;;;;;;13.60;8.00;;;5.50;99.90;;;;;;5075989;28;20207;-81
2021/04/08 07:25:15;;;;;;;11.83;7.67;;;5.70;99.90;;;;;;5077477;28;20226;-81
2021/04/08 07:27:42;;;;;;;12.33;8.70;;;5.50;99.90;;;;;;5078023;28;20259;-81
2021/04/08 07:30:10;;;;;;;13.50;7.80;;;5.60;99.90;;;;;;5077246;28;20211;-81
2021/04/08 07:32:38;;;;;;;14.57;8.77;;;5.60;99.90;;;;;;5076843;28;20197;-81
2021/04/08 07:35:14;;;;;;;10.70;7.97;;;5.60;99.90;;;;;;5078255;28;20275;-81
2021/04/08 07:37:42;;;;;;;12.57;7.87;;;5.80;99.90;;;;;;5077229;28;20236;-80
2021/04/08 07:40:15;;;;;;;14.50;8.07;;;5.80;99.90;;;;;;5077801;28;20234;-80
2021/04/08 07:42:42;;;;;;;10.83;8.37;;;6.00;99.90;;;;;;5075722;28;20210;-81
2021/04/08 07:45:10;;;;;;;14.10;7.93;;;5.80;99.90;;;;;;5077732;28;20209;-81
2021/04/08 07:47:40;;;;;;;15.03;7.87;;;5.90;99.90;;;;;;5078236;28;20204;-80
2021/04/08 07:50:16;;;;;;;15.07;8.43;;;5.90;99.90;;;;;;5078138;28;20801;-80
2021/04/08 07:52:44;;;;;;;15.67;8.30;;;6.00;99.90;;;;;;5075478;28;20245;-80
2021/04/08 07:55:15;;;;;;;9.27;7.60;;;6.10;99.90;;;;;;5077429;28;20692;-80
2021/04/08 07:58:04;;;;;;;13.97;8.23;;;6.50;99.90;;;;;;5076904;28;20198;-81
2021/04/08 08:00:33;;;;;;;17.17;8.27;;;6.80;99.90;;;;;;5078307;28;20230;-82
2021/04/08 08:03:03;;;;;;;14.10;7.67;;;6.90;99.90;;;;;;5076696;28;20217;-82
2021/04/08 08:05:31;;;;;;;10.17;6.83;;;7.10;99.90;;;;;;5077501;28;20209;-80
2021/04/08 08:08:13;;;;;;;9.90;6.93;;;7.30;99.90;;;;;;5077595;28;20206;-81
2021/04/08 08:10:41;;;;;;;14.40;7.00;;;7.40;99.90;;;;;;5074125;28;20206;-81
2021/04/08 08:13:28;;;;;;;11.63;7.20;;;7.50;99.90;;;;;;5078677;28;20721;-82
2021/04/08 08:15:56;;;;;;;12.83;6.87;;;7.70;99.90;;;;;;5080864;28;20277;-81
2021/04/08 08:18:31;;;;;;;9.03;7.23;;;7.70;99.90;;;;;;5078165;28;20199;-82
2021/04/08 08:21:08;;;;;;;9.53;6.77;;;7.80;99.90;;;;;;5081223;28;20208;-81
2021/04/08 08:23:40;;;;;;;11.40;6.90;;;7.80;99.90;;;;;;5090716;28;20334;-82
2021/04/08 08:26:30;;;;;;;11.40;6.43;;;7.80;99.90;;;;;;5074987;28;20673;-85
2021/04/08 08:28:59;;;;;;;13.53;6.37;;;7.70;99.90;;;;;;5079835;28;20195;-83
2021/04/08 08:31:38;;;;;;;13.13;6.80;;;7.70;99.90;;;;;;5085230;28;20769;-83
2021/04/08 08:34:07;;;;;;;14.37;7.57;;;7.90;99.90;;;;;;5080596;28;20234;-82
2021/04/08 08:36:34;;;;;;;11.80;7.07;;;8.50;99.90;;;;;;5082358;28;21514;-82
2021/04/08 08:39:03;;;;;;;12.10;7.37;;;9.00;99.90;;;;;;5082214;28;20251;-83
2021/04/08 08:41:30;;;;;;;12.03;7.10;;;9.20;99.90;;;;;;5079325;28;20638;-82
2021/04/08 08:43:57;;;;;;;12.20;6.80;;;9.20;99.90;;;;;;5082649;28;20247;-83
2021/04/08 08:46:26;;;;;;;11.17;6.93;;;9.20;99.90;;;;;;5082808;28;20548;-82
2021/04/08 08:48:54;;;;;;;13.07;7.30;;;9.20;99.90;;;;;;5084200;28;20294;-79
2021/04/08 08:51:21;;;;;;;11.07;7.17;;;9.00;99.90;;;;;;5092235;28;20293;-80
2021/04/08 08:53:48;;;;;;;12.03;6.90;;;8.90;99.90;;;;;;5087627;28;20327;-77
2021/04/08 08:56:15;;;;;;;12.33;7.30;;;8.80;99.90;;;;;;5075389;28;20302;-77
2021/04/08 08:58:42;;;;;;;8.10;6.30;;;8.90;99.90;;;;;;5081626;28;20206;-78
2021/04/08 09:01:08;;;;;;;10.87;6.60;;;9.00;99.90;;;;;;5083916;28;20225;-75
2021/04/08 09:03:34;;;;;;;8.63;6.90;;;9.00;99.90;;;;;;5075993;28;20195;-77
2021/04/08 09:06:06;;;;;;;9.03;6.80;;;9.00;99.90;;;;;;5086364;28;20572;-75
2021/04/08 09:08:35;;;;;;;11.47;7.30;;;9.00;99.90;;;;;;5092524;28;20658;-76
2021/04/08 09:11:01;;;;;;;10.90;7.40;;;9.10;99.90;;;;;;5075608;28;20199;-76
2021/04/08 09:13:29;;;;;;;9.67;7.10;;;9.00;99.90;;;;;;5075768;28;20199;-76
2021/04/08 09:15:59;;;;;;;12.67;6.80;;;9.20;99.90;;;;;;5074586;28;20233;-77
2021/04/08 09:18:25;;;;;;;10.33;6.73;;;9.40;99.90;;;;;;5075529;28;20576;-76
2021/04/08 09:20:53;;;;;;;9.60;6.90;;;9.60;99.90;;;;;;5082172;28;20202;-76
2021/04/08 09:23:22;;;;;;;10.23;7.10;;;9.80;99.90;;;;;;5082796;28;20199;-75
2021/04/08 09:25:54;;;;;;;8.55;6.68;;;9.90;99.90;;;;;;5075458;28;20215;-76
2021/04/08 09:28:21;;;;;;;7.85;6.07;;;10.00;99.90;;;;;;5075792;28;20264;-76
2021/04/08 09:30:58;;;;;;;7.78;6.15;;;9.80;99.90;;;;;;5089641;28;20217;-75
2021/04/08 09:33:59;;;;;;;9.38;6.68;;;9.80;99.90;;;;;;5087500;28;20202;-76
2021/04/08 09:36:40;;;;;;;10.67;7.33;;;9.80;99.90;;;;;;5075036;28;20287;-75
2021/04/08 09:39:26;;;;;;;9.07;7.10;;;9.70;99.90;;;;;;5075017;28;20289;-76
2021/04/08 09:42:01;;;;;;;11.70;7.13;;;9.60;99.90;;;;;;5075507;28;20199;-76
2021/04/08 09:44:29;;;;;;;9.02;7.20;;;9.80;99.90;;;;;;5089484;28;20194;-76
2021/04/08 09:46:57;;;;;;;7.77;6.50;;;9.90;99.90;;;;;;5075375;28;20230;-76
2021/04/08 09:49:56;;;;;;;10.82;7.28;;;9.90;99.90;;;;;;5074641;28;20205;-77
2021/04/08 09:52:22;;;;;;;9.45;6.90;;;10.00;99.90;;;;;;5075253;28;20659;-77
2021/04/08 09:54:55;;;;;;;9.23;6.65;;;10.20;99.90;;;;;;5074906;28;20230;-77
2021/04/08 09:57:40;;;;;;;13.73;6.55;;;10.10;99.90;;;;;;5074890;28;20211;-77
2021/04/08 10:00:12;;;;;;;10.20;6.88;;;9.80;99.90;;;;;;5074947;28;20203;-75
2021/04/08 10:02:38;;;;;;;10.13;6.30;;;10.00;99.90;;;;;;5074387;28;20211;-76
2021/04/08 10:05:08;;;;;;;10.23;7.00;;;9.80;99.90;;;;;;5089055;28;20198;-77
2021/04/08 10:07:48;;;;;;;7.30;6.60;;;9.50;99.90;;;;;;5074827;28;20203;-77
2021/04/08 10:10:16;;;;;;;10.10;6.03;;;9.20;99.90;;;;;;5078183;28;20220;-78
2021/04/08 10:12:42;;;;;;;8.13;7.33;;;9.10;99.90;;;;;;5095572;28;20266;-80
2021/04/08 10:15:10;;;;;;;9.90;7.03;;;9.00;99.90;;;;;;5080765;28;20287;-77
2021/04/08 10:17:37;;;;;;;9.30;6.67;;;9.00;99.90;;;;;;5095449;28;20190;-77
2021/04/08 10:20:06;;;;;;;9.63;6.53;;;8.90;99.90;;;;;;5095870;28;20202;-77
2021/04/08 10:22:40;;;;;;;8.07;6.40;;;8.90;99.90;;;;;;5088231;28;20199;-76
2021/04/08 10:25:09;;;;;;;9.00;6.30;;;9.20;99.90;;;;;;5074413;28;20221;-77
2021/04/08 10:27:36;;;;;;;10.47;6.60;;;9.50;99.90;;;;;;5088195;28;20191;-77
2021/04/08 10:30:13;;;;;;;7.43;6.03;;;9.90;99.90;;;;;;5074295;28;20319;-76
2021/04/08 10:32:42;;;;;;;7.28;6.55;;;9.90;98.80;;;;;;5073979;28;20635;-77
2021/04/08 10:35:22;;;;;;;7.57;6.20;;;10.10;99.30;;;;;;5074227;28;20309;-77
2021/04/08 10:38:03;;;;;;;10.30;6.30;;;10.10;99.00;;;;;;5080240;28;20243;-78
2021/04/08 10:40:29;;;;;;;7.25;6.55;;;10.10;99.90;;;;;;5080307;28;20542;-80
2021/04/08 10:43:11;;;;;;;10.20;7.40;;;10.30;98.80;;;;;;5081229;28;20281;-78
2021/04/08 10:45:38;;;;;;;11.20;7.45;;;10.30;99.40;;;;;;5079710;28;20680;-79
2021/04/08 10:48:07;;;;;;;9.65;7.45;;;10.30;99.10;;;;;;5087259;28;20229;-79
2021/04/08 10:50:34;;;;;;;10.40;7.63;;;9.90;99.80;;;;;;5074022;28;20228;-81
2021/04/08 10:53:01;;;;;;;9.38;7.53;;;9.90;99.50;;;;;;5073936;28;20225;-79
2021/04/08 10:55:28;;;;;;;9.57;7.10;;;10.00;99.90;;;;;;5081234;28;20222;-79
2021/04/08 10:57:54;;;;;;;14.40;7.90;;;10.00;99.90;;;;;;5080229;28;20665;-78
2021/04/08 11:00:24;;;;;;;9.35;7.28;;;9.90;99.30;;;;;;5087622;28;20195;-80
2021/04/08 11:02:51;;;;;;;10.98;7.68;;;9.90;99.90;;;;;;5086447;28;20683;-79
2021/04/08 11:05:20;;;;;;;9.65;7.20;;;10.10;99.90;;;;;;5090468;28;20289;-79
2021/04/08 11:07:48;;;;;;;11.88;7.47;;;10.00;99.80;;;;;;5073637;28;20203;-79
2021/04/08 11:10:17;;;;;;;11.30;7.25;;;10.20;99.90;;;;;;5090863;28;20202;-80
2021/04/08 11:12:43;;;;;;;10.02;7.68;;;10.30;99.30;;;;;;5080342;28;20219;-82
2021/04/08 11:15:12;;;;;;;14.45;8.35;;;10.00;98.80;;;;;;5082353;28;20217;-82
2021/04/08 11:17:43;;;;;;;10.52;8.05;;;10.10;99.10;;;;;;5084189;28;20197;-81
2021/04/08 11:20:12;;;;;;;8.75;7.47;;;10.00;99.00;;;;;;5084445;28;20209;-81
2021/04/08 11:22:43;;;;;;;8.50;7.60;;;10.00;99.40;;;;;;5080152;28;20301;-81
2021/04/08 11:25:12;;;;;;;15.85;7.97;;;10.00;98.60;;;;;;5080962;28;20205;-79
2021/04/08 11:27:43;;;;;;;9.95;8.00;;;10.30;98.90;;;;;;5083371;28;20222;-80
2021/04/08 11:30:12;;;;;;;9.68;7.88;;;10.20;99.30;;;;;;5081823;28;20208;-80
2021/04/08 11:32:50;;;;;;;8.75;7.85;;;10.00;99.00;;;;;;5082423;28;20282;-80
2021/04/08 11:35:24;;;;;;;10.32;8.60;;;10.00;99.30;;;;;;5083758;28;20225;-82
2021/04/08 11:38:03;;;;;;;11.10;8.65;;;10.10;99.70;;;;;;5080842;28;20255;-81
2021/04/08 11:40:29;;;;;;;9.77;8.55;;;10.30;99.40;;;;;;5083023;28;20697;-84
2021/04/08 11:42:56;;;;;;;10.60;9.50;;;10.50;99.00;;;;;;5083043;28;20255;-81
2021/04/08 11:45:25;;;;;;;10.85;8.85;;;10.40;98.60;;;;;;5079986;28;20296;-80
2021/04/08 11:47:57;;;;;;;11.43;8.20;;;10.40;98.00;;;;;;5080415;28;20238;-80
2021/04/08 11:50:28;;;;;;;12.57;8.52;;;10.60;97.50;;;;;;5079674;28;20548;-82
2021/04/08 11:53:06;;;;;;;11.98;9.23;;;10.80;98.00;;;;;;5079194;28;20206;-82
2021/04/08 11:55:38;;;;;;;13.35;8.95;;;10.90;98.00;;;;;;5078727;28;20217;-80
2021/04/08 11:58:05;;;;;;;13.68;8.93;;;10.80;97.80;;;;;;5081969;28;20194;-82
2021/04/08 12:00:33;;;;;;;9.95;8.60;;;10.70;97.80;;;;;;5082915;28;20198;-80
2021/04/08 12:03:13;;;;;;;10.60;9.00;;;10.90;99.20;;;;;;5081427;28;20591;-80
2021/04/08 12:05:39;;;;;;;13.50;9.52;;;10.90;97.40;;;;;;5083509;28;20198;-80
2021/04/08 12:08:06;;;;;;;11.55;9.93;;;10.40;97.60;;;;;;5084330;28;20194;-80
2021/04/08 12:10:34;;;;;;;11.75;9.13;;;10.10;97.50;;;;;;5087252;28;20202;-79
2021/04/08 12:13:03;;;;;;;11.20;9.75;;;10.10;99.30;;;;;;5085775;28;20289;-80
2021/04/08 12:15:34;;;;;;;10.98;9.82;;;10.10;98.40;;;;;;5082754;28;20218;-80
2021/04/08 12:18:01;;;;;;;10.55;9.45;;;10.10;98.80;;;;;;5082509;28;20292;-80
2021/04/08 12:20:34;;;;;;;10.53;8.70;;;10.20;98.60;;;;;;5083460;28;20194;-79
2021/04/08 12:23:07;;;;;;;15.70;10.18;;;10.20;99.60;;;;;;5080800;28;20206;-80
2021/04/08 12:25:44;;;;;;;11.88;9.35;;;10.30;98.60;;;;;;5081657;28;20267;-79
2021/04/08 12:28:11;;;;;;;11.75;9.15;;;10.20;98.60;;;;;;5086821;28;20189;-81
2021/04/08 12:30:46;;;;;;;9.80;8.87;;;10.20;99.20;;;;;;5086759;28;20209;-80
2021/04/08 12:33:18;;;;;;;12.25;9.43;;;10.00;99.30;;;;;;5086983;28;20631;-79
2021/04/08 12:35:45;;;;;;;10.60;9.50;;;9.90;98.10;;;;;;5083626;28;20626;-80
2021/04/08 12:38:11;;;;;;;11.73;9.40;;;9.80;99.20;;;;;;5082716;28;20284;-81
2021/04/08 12:40:38;;;;;;;13.60;10.27;;;9.60;99.80;;;;;;5085616;28;20198;-80
2021/04/08 12:43:05;;;;;;;11.90;9.93;;;9.60;99.90;;;;;;5087201;28;20191;-81
2021/04/08 12:45:32;;;;;;;12.07;10.87;;;9.80;99.90;;;;;;5082016;28;20221;-81
2021/04/08 12:47:58;;;;;;;12.55;10.32;;;9.90;99.90;;;;;;5083382;28;20578;-80
2021/04/08 12:50:26;;;;;;;14.87;9.93;;;10.10;99.90;;;;;;5085403;28;20668;-82
2021/04/08 12:52:52;;;;;;;15.70;9.40;;;10.20;99.90;;;;;;5083392;28;20387;-84
2021/04/08 12:55:19;;;;;;;12.85;11.43;;;10.30;99.90;;;;;;5082391;28;20280;-83
2021/04/08 12:57:46;;;;;;;14.60;10.32;;;10.20;99.00;;;;;;5085031;28;20202;-80
2021/04/08 13:00:13;;;;;;;11.83;10.30;;;10.30;99.90;;;;;;5084210;28;20225;-80